sensor_id;sensor_type;location;lat;lon;timestamp;P1;durP1;ratioP1;P2;durP2;ratioP2
12812;SDS011;6471;50.932;6.934;2022-09-24T00:00:54;3.07;;;2.40;;
12812;SDS011;6471;50.932;6.934;2022-09-24T00:03:22;3.70;;;2.53;;
12812;SDS011;6471;50.932;6.934;2022-09-24T00:05:49;2.93;;;2.50;;
12812;SDS011;6471;50.932;6.934;2022-09-24T00:08:15;3.40;;;2.33;;
12812;SDS011;6471;50.932;6.934;2022-09-24T00:10:43;3.10;;;2.60;;
12812;SDS011;6471;50.932;6.934;2022-09-24T00:13:10;3.57;;;2.47;;
12812;SDS011;6471;50.932;6.934;2022-09-24T00:15:37;3.37;;;2.60;;
12812;SDS011;6471;50.932;6.934;2022-09-24T00:18:03;3.20;;;2.70;;
12812;SDS011;6471;50.932;6.934;2022-09-24T00:20:30;3.20;;;2.53;;
12812;SDS011;6471;50.932;6.934;2022-09-24T00:22:57;3.20;;;2.63;;
12812;SDS011;6471;50.932;6.934;2022-09-24T00:25:23;3.57;;;2.40;;
12812;SDS011;6471;50.932;6.934;2022-09-24T00:28:07;3.00;;;2.50;;
12812;SDS011;6471;50.932;6.934;2022-09-24T00:30:36;3.07;;;2.47;;
12812;SDS011;6471;50.932;6.934;2022-09-24T00:33:02;3.83;;;2.80;;
12812;SDS011;6471;50.932;6.934;2022-09-24T00:35:30;3.83;;;2.73;;
12812;SDS011;6471;50.932;6.934;2022-09-24T00:37:56;3.13;;;2.67;;
12812;SDS011;6471;50.932;6.934;2022-09-24T00:40:26;3.20;;;2.70;;
12812;SDS011;6471;50.932;6.934;2022-09-24T00:42:52;4.10;;;2.90;;
12812;SDS011;6471;50.932;6.934;2022-09-24T00:45:18;3.00;;;2.50;;
12812;SDS011;6471;50.932;6.934;2022-09-24T00:47:44;3.23;;;2.90;;
12812;SDS011;6471;50.932;6.934;2022-09-24T00:53:07;3.10;;;2.80;;
12812;SDS011;6471;50.932;6.934;2022-09-24T00:55:35;3.97;;;3.13;;
12812;SDS011;6471;50.932;6.934;2022-09-24T00:58:03;4.93;;;3.43;;
12812;SDS011;6471;50.932;6.934;2022-09-24T01:00:30;3.47;;;3.00;;
12812;SDS011;6471;50.932;6.934;2022-09-24T01:02:58;3.20;;;2.90;;
12812;SDS011;6471;50.932;6.934;2022-09-24T01:05:25;4.07;;;3.03;;
12812;SDS011;6471;50.932;6.934;2022-09-24T01:07:51;4.40;;;3.47;;
12812;SDS011;6471;50.932;6.934;2022-09-24T01:10:19;3.80;;;3.00;;
12812;SDS011;6471;50.932;6.934;2022-09-24T01:13:11;3.53;;;2.97;;
12812;SDS011;6471;50.932;6.934;2022-09-24T01:15:43;3.03;;;2.73;;
12812;SDS011;6471;50.932;6.934;2022-09-24T01:18:15;3.10;;;2.50;;
12812;SDS011;6471;50.932;6.934;2022-09-24T01:25:57;3.13;;;2.70;;
12812;SDS011;6471;50.932;6.934;2022-09-24T01:30:52;2.63;;;2.43;;
12812;SDS011;6471;50.932;6.934;2022-09-24T01:33:20;3.27;;;2.63;;
12812;SDS011;6471;50.932;6.934;2022-09-24T01:35:50;3.27;;;2.50;;
12812;SDS011;6471;50.932;6.934;2022-09-24T01:38:20;3.33;;;2.40;;
12812;SDS011;6471;50.932;6.934;2022-09-24T01:40:47;3.70;;;2.70;;
12812;SDS011;6471;50.932;6.934;2022-09-24T01:43:15;2.87;;;2.50;;
12812;SDS011;6471;50.932;6.934;2022-09-24T01:45:42;3.10;;;2.53;;
12812;SDS011;6471;50.932;6.934;2022-09-24T01:48:08;3.33;;;2.63;;
12812;SDS011;6471;50.932;6.934;2022-09-24T01:50:39;3.07;;;2.60;;
12812;SDS011;6471;50.932;6.934;2022-09-24T01:53:08;2.70;;;2.40;;
12812;SDS011;6471;50.932;6.934;2022-09-24T01:55:38;3.13;;;2.47;;
12812;SDS011;6471;50.932;6.934;2022-09-24T01:58:07;3.17;;;2.50;;
12812;SDS011;6471;50.932;6.934;2022-09-24T02:00:38;2.57;;;2.37;;
12812;SDS011;6471;50.932;6.934;2022-09-24T02:03:21;3.13;;;2.50;;
12812;SDS011;6471;50.932;6.934;2022-09-24T02:08:18;3.43;;;2.70;;
12812;SDS011;6471;50.932;6.934;2022-09-24T02:10:56;3.20;;;2.53;;
12812;SDS011;6471;50.932;6.934;2022-09-24T02:13:25;2.70;;;2.30;;
12812;SDS011;6471;50.932;6.934;2022-09-24T02:15:55;2.83;;;2.53;;
12812;SDS011;6471;50.932;6.934;2022-09-24T02:18:24;2.80;;;2.50;;
12812;SDS011;6471;50.932;6.934;2022-09-24T02:20:51;3.30;;;2.90;;
12812;SDS011;6471;50.932;6.934;2022-09-24T02:23:17;3.43;;;2.80;;
12812;SDS011;6471;50.932;6.934;2022-09-24T02:28:11;3.20;;;2.63;;
12812;SDS011;6471;50.932;6.934;2022-09-24T02:30:39;3.20;;;2.50;;
12812;SDS011;6471;50.932;6.934;2022-09-24T02:33:09;3.67;;;3.00;;
12812;SDS011;6471;50.932;6.934;2022-09-24T02:35:56;2.97;;;2.67;;
12812;SDS011;6471;50.932;6.934;2022-09-24T02:38:22;3.10;;;2.80;;
12812;SDS011;6471;50.932;6.934;2022-09-24T02:40:48;2.93;;;2.63;;
12812;SDS011;6471;50.932;6.934;2022-09-24T02:43:15;3.10;;;2.60;;
12812;SDS011;6471;50.932;6.934;2022-09-24T02:45:41;3.37;;;2.77;;
12812;SDS011;6471;50.932;6.934;2022-09-24T02:48:07;3.27;;;2.70;;
12812;SDS011;6471;50.932;6.934;2022-09-24T02:50:33;3.60;;;2.80;;
12812;SDS011;6471;50.932;6.934;2022-09-24T02:52:59;3.13;;;2.80;;
12812;SDS011;6471;50.932;6.934;2022-09-24T02:55:25;3.50;;;2.83;;
12812;SDS011;6471;50.932;6.934;2022-09-24T02:57:51;3.37;;;2.67;;
12812;SDS011;6471;50.932;6.934;2022-09-24T03:00:17;3.50;;;2.90;;
12812;SDS011;6471;50.932;6.934;2022-09-24T03:02:45;3.63;;;2.77;;
12812;SDS011;6471;50.932;6.934;2022-09-24T03:05:11;3.27;;;2.70;;
12812;SDS011;6471;50.932;6.934;2022-09-24T03:07:42;2.90;;;2.60;;
12812;SDS011;6471;50.932;6.934;2022-09-24T03:10:08;3.73;;;2.70;;
12812;SDS011;6471;50.932;6.934;2022-09-24T03:12:35;3.60;;;3.20;;
12812;SDS011;6471;50.932;6.934;2022-09-24T03:15:01;4.50;;;3.63;;
12812;SDS011;6471;50.932;6.934;2022-09-24T03:17:27;4.23;;;3.30;;
12812;SDS011;6471;50.932;6.934;2022-09-24T03:19:53;4.47;;;3.17;;
12812;SDS011;6471;50.932;6.934;2022-09-24T03:22:19;3.20;;;2.90;;
12812;SDS011;6471;50.932;6.934;2022-09-24T03:24:45;3.90;;;3.20;;
12812;SDS011;6471;50.932;6.934;2022-09-24T03:27:11;3.87;;;3.27;;
12812;SDS011;6471;50.932;6.934;2022-09-24T03:29:38;3.90;;;3.07;;
12812;SDS011;6471;50.932;6.934;2022-09-24T03:32:23;3.00;;;2.67;;
12812;SDS011;6471;50.932;6.934;2022-09-24T03:34:49;3.77;;;3.17;;
12812;SDS011;6471;50.932;6.934;2022-09-24T03:37:15;4.10;;;3.20;;
12812;SDS011;6471;50.932;6.934;2022-09-24T03:39:42;4.33;;;3.23;;
12812;SDS011;6471;50.932;6.934;2022-09-24T03:42:10;3.93;;;3.10;;
12812;SDS011;6471;50.932;6.934;2022-09-24T03:44:36;4.27;;;3.10;;
12812;SDS011;6471;50.932;6.934;2022-09-24T03:47:02;5.97;;;3.13;;
12812;SDS011;6471;50.932;6.934;2022-09-24T03:49:28;3.93;;;3.33;;
12812;SDS011;6471;50.932;6.934;2022-09-24T03:51:54;4.37;;;3.53;;
12812;SDS011;6471;50.932;6.934;2022-09-24T03:54:21;3.97;;;3.47;;
12812;SDS011;6471;50.932;6.934;2022-09-24T03:56:47;3.87;;;3.30;;
12812;SDS011;6471;50.932;6.934;2022-09-24T03:59:13;3.73;;;3.07;;
12812;SDS011;6471;50.932;6.934;2022-09-24T04:01:39;3.80;;;3.17;;
12812;SDS011;6471;50.932;6.934;2022-09-24T04:04:05;3.40;;;3.10;;
12812;SDS011;6471;50.932;6.934;2022-09-24T04:06:31;4.23;;;3.80;;
12812;SDS011;6471;50.932;6.934;2022-09-24T04:08:57;5.73;;;4.40;;
12812;SDS011;6471;50.932;6.934;2022-09-24T04:11:24;4.47;;;3.83;;
12812;SDS011;6471;50.932;6.934;2022-09-24T04:13:50;4.60;;;3.63;;
12812;SDS011;6471;50.932;6.934;2022-09-24T04:16:16;4.87;;;3.90;;
12812;SDS011;6471;50.932;6.934;2022-09-24T04:18:42;4.47;;;3.40;;
12812;SDS011;6471;50.932;6.934;2022-09-24T04:21:08;4.53;;;3.23;;
12812;SDS011;6471;50.932;6.934;2022-09-24T04:23:35;3.77;;;3.17;;
12812;SDS011;6471;50.932;6.934;2022-09-24T04:26:01;3.63;;;3.20;;
12812;SDS011;6471;50.932;6.934;2022-09-24T04:28:27;3.83;;;3.30;;
12812;SDS011;6471;50.932;6.934;2022-09-24T04:30:54;3.20;;;2.90;;
12812;SDS011;6471;50.932;6.934;2022-09-24T04:33:20;3.13;;;2.83;;
12812;SDS011;6471;50.932;6.934;2022-09-24T04:35:46;3.20;;;2.90;;
12812;SDS011;6471;50.932;6.934;2022-09-24T04:38:12;4.13;;;3.70;;
12812;SDS011;6471;50.932;6.934;2022-09-24T04:40:38;3.60;;;3.23;;
12812;SDS011;6471;50.932;6.934;2022-09-24T04:43:05;4.10;;;3.17;;
12812;SDS011;6471;50.932;6.934;2022-09-24T04:45:31;3.40;;;3.00;;
12812;SDS011;6471;50.932;6.934;2022-09-24T04:47:57;3.73;;;3.20;;
12812;SDS011;6471;50.932;6.934;2022-09-24T04:50:27;3.30;;;3.00;;
12812;SDS011;6471;50.932;6.934;2022-09-24T04:52:56;4.03;;;3.00;;
12812;SDS011;6471;50.932;6.934;2022-09-24T04:55:22;3.13;;;2.83;;
12812;SDS011;6471;50.932;6.934;2022-09-24T04:57:49;4.27;;;3.00;;
12812;SDS011;6471;50.932;6.934;2022-09-24T05:00:16;4.17;;;3.30;;
12812;SDS011;6471;50.932;6.934;2022-09-24T05:02:42;4.03;;;3.10;;
12812;SDS011;6471;50.932;6.934;2022-09-24T05:05:09;3.67;;;3.10;;
12812;SDS011;6471;50.932;6.934;2022-09-24T05:07:36;3.90;;;3.20;;
12812;SDS011;6471;50.932;6.934;2022-09-24T05:10:02;3.30;;;3.00;;
12812;SDS011;6471;50.932;6.934;2022-09-24T05:12:30;4.20;;;3.30;;
12812;SDS011;6471;50.932;6.934;2022-09-24T05:14:56;3.97;;;3.00;;
12812;SDS011;6471;50.932;6.934;2022-09-24T05:17:22;4.53;;;3.00;;
12812;SDS011;6471;50.932;6.934;2022-09-24T05:19:48;3.63;;;2.70;;
12812;SDS011;6471;50.932;6.934;2022-09-24T05:22:14;3.30;;;3.00;;
12812;SDS011;6471;50.932;6.934;2022-09-24T05:24:40;3.80;;;3.00;;
12812;SDS011;6471;50.932;6.934;2022-09-24T05:27:07;3.63;;;2.90;;
12812;SDS011;6471;50.932;6.934;2022-09-24T05:29:40;3.93;;;2.90;;
12812;SDS011;6471;50.932;6.934;2022-09-24T05:32:11;5.63;;;4.17;;
12812;SDS011;6471;50.932;6.934;2022-09-24T05:34:38;7.50;;;4.77;;
12812;SDS011;6471;50.932;6.934;2022-09-24T05:37:05;4.83;;;3.73;;
12812;SDS011;6471;50.932;6.934;2022-09-24T05:39:31;5.73;;;3.87;;
12812;SDS011;6471;50.932;6.934;2022-09-24T05:41:57;4.33;;;3.57;;
12812;SDS011;6471;50.932;6.934;2022-09-24T05:44:23;4.37;;;3.30;;
12812;SDS011;6471;50.932;6.934;2022-09-24T05:46:50;3.93;;;3.30;;
12812;SDS011;6471;50.932;6.934;2022-09-24T05:49:16;3.43;;;2.90;;
12812;SDS011;6471;50.932;6.934;2022-09-24T05:51:42;5.13;;;3.23;;
12812;SDS011;6471;50.932;6.934;2022-09-24T05:54:09;3.57;;;2.90;;
12812;SDS011;6471;50.932;6.934;2022-09-24T05:56:35;3.53;;;2.90;;
12812;SDS011;6471;50.932;6.934;2022-09-24T05:59:01;3.40;;;2.90;;
12812;SDS011;6471;50.932;6.934;2022-09-24T06:01:27;3.20;;;2.90;;
12812;SDS011;6471;50.932;6.934;2022-09-24T06:03:54;3.43;;;2.97;;
12812;SDS011;6471;50.932;6.934;2022-09-24T06:06:20;3.90;;;3.23;;
12812;SDS011;6471;50.932;6.934;2022-09-24T06:08:46;5.63;;;3.70;;
12812;SDS011;6471;50.932;6.934;2022-09-24T06:11:12;4.17;;;3.30;;
12812;SDS011;6471;50.932;6.934;2022-09-24T06:13:38;4.27;;;3.20;;
12812;SDS011;6471;50.932;6.934;2022-09-24T06:16:06;4.17;;;3.20;;
12812;SDS011;6471;50.932;6.934;2022-09-24T06:18:35;4.17;;;2.83;;
12812;SDS011;6471;50.932;6.934;2022-09-24T06:21:03;3.57;;;2.90;;
12812;SDS011;6471;50.932;6.934;2022-09-24T06:23:30;3.77;;;3.00;;
12812;SDS011;6471;50.932;6.934;2022-09-24T06:25:56;2.93;;;2.63;;
12812;SDS011;6471;50.932;6.934;2022-09-24T06:28:22;3.87;;;3.00;;
12812;SDS011;6471;50.932;6.934;2022-09-24T06:30:52;3.77;;;3.10;;
12812;SDS011;6471;50.932;6.934;2022-09-24T06:33:18;3.20;;;2.83;;
12812;SDS011;6471;50.932;6.934;2022-09-24T06:35:47;3.40;;;3.00;;
12812;SDS011;6471;50.932;6.934;2022-09-24T06:38:14;3.10;;;2.80;;
12812;SDS011;6471;50.932;6.934;2022-09-24T06:40:41;3.50;;;2.93;;
12812;SDS011;6471;50.932;6.934;2022-09-24T06:43:11;3.33;;;2.80;;
12812;SDS011;6471;50.932;6.934;2022-09-24T06:45:37;3.63;;;3.13;;
12812;SDS011;6471;50.932;6.934;2022-09-24T06:48:04;3.27;;;2.83;;
12812;SDS011;6471;50.932;6.934;2022-09-24T06:50:31;3.27;;;2.70;;
12812;SDS011;6471;50.932;6.934;2022-09-24T06:52:58;3.57;;;2.93;;
12812;SDS011;6471;50.932;6.934;2022-09-24T06:55:25;3.13;;;2.80;;
12812;SDS011;6471;50.932;6.934;2022-09-24T06:58:04;3.30;;;3.00;;
12812;SDS011;6471;50.932;6.934;2022-09-24T07:00:31;3.30;;;2.80;;
12812;SDS011;6471;50.932;6.934;2022-09-24T07:02:57;3.30;;;3.00;;
12812;SDS011;6471;50.932;6.934;2022-09-24T07:05:23;3.10;;;2.80;;
12812;SDS011;6471;50.932;6.934;2022-09-24T07:07:49;3.07;;;2.77;;
12812;SDS011;6471;50.932;6.934;2022-09-24T07:10:15;3.43;;;3.13;;
12812;SDS011;6471;50.932;6.934;2022-09-24T07:12:41;3.40;;;3.10;;
12812;SDS011;6471;50.932;6.934;2022-09-24T07:15:09;3.10;;;2.80;;
12812;SDS011;6471;50.932;6.934;2022-09-24T07:17:35;4.07;;;3.40;;
12812;SDS011;6471;50.932;6.934;2022-09-24T07:20:02;6.40;;;5.00;;
12812;SDS011;6471;50.932;6.934;2022-09-24T07:22:28;6.67;;;4.60;;
12812;SDS011;6471;50.932;6.934;2022-09-24T07:24:54;7.20;;;4.67;;
12812;SDS011;6471;50.932;6.934;2022-09-24T07:27:21;13.63;;;8.30;;
12812;SDS011;6471;50.932;6.934;2022-09-24T07:29:47;18.37;;;11.63;;
12812;SDS011;6471;50.932;6.934;2022-09-24T07:32:16;18.27;;;10.67;;
12812;SDS011;6471;50.932;6.934;2022-09-24T07:34:43;14.07;;;9.10;;
12812;SDS011;6471;50.932;6.934;2022-09-24T07:37:09;11.03;;;7.70;;
12812;SDS011;6471;50.932;6.934;2022-09-24T07:39:38;12.47;;;7.50;;
12812;SDS011;6471;50.932;6.934;2022-09-24T07:42:04;12.67;;;8.23;;
12812;SDS011;6471;50.932;6.934;2022-09-24T07:44:30;13.40;;;7.90;;
12812;SDS011;6471;50.932;6.934;2022-09-24T07:46:56;10.60;;;7.13;;
12812;SDS011;6471;50.932;6.934;2022-09-24T07:49:22;8.77;;;6.43;;
12812;SDS011;6471;50.932;6.934;2022-09-24T07:51:48;8.50;;;5.97;;
12812;SDS011;6471;50.932;6.934;2022-09-24T07:54:14;6.73;;;5.63;;
12812;SDS011;6471;50.932;6.934;2022-09-24T07:56:41;7.17;;;4.93;;
12812;SDS011;6471;50.932;6.934;2022-09-24T07:59:07;7.17;;;5.20;;
12812;SDS011;6471;50.932;6.934;2022-09-24T08:01:35;6.23;;;4.87;;
12812;SDS011;6471;50.932;6.934;2022-09-24T08:04:01;4.67;;;3.97;;
12812;SDS011;6471;50.932;6.934;2022-09-24T08:06:28;5.53;;;4.60;;
12812;SDS011;6471;50.932;6.934;2022-09-24T08:08:57;6.50;;;4.53;;
12812;SDS011;6471;50.932;6.934;2022-09-24T08:11:23;7.37;;;5.33;;
12812;SDS011;6471;50.932;6.934;2022-09-24T08:13:49;6.57;;;4.70;;
12812;SDS011;6471;50.932;6.934;2022-09-24T08:16:16;5.23;;;4.20;;
12812;SDS011;6471;50.932;6.934;2022-09-24T08:18:43;6.00;;;3.97;;
12812;SDS011;6471;50.932;6.934;2022-09-24T08:21:10;5.30;;;4.00;;
12812;SDS011;6471;50.932;6.934;2022-09-24T08:23:42;6.23;;;4.37;;
12812;SDS011;6471;50.932;6.934;2022-09-24T08:26:09;5.67;;;4.20;;
12812;SDS011;6471;50.932;6.934;2022-09-24T08:28:35;9.83;;;5.70;;
12812;SDS011;6471;50.932;6.934;2022-09-24T08:31:02;10.63;;;7.50;;
12812;SDS011;6471;50.932;6.934;2022-09-24T08:33:32;8.07;;;6.30;;
12812;SDS011;6471;50.932;6.934;2022-09-24T08:35:58;8.37;;;6.10;;
12812;SDS011;6471;50.932;6.934;2022-09-24T08:38:24;6.67;;;5.20;;
12812;SDS011;6471;50.932;6.934;2022-09-24T08:41:04;6.33;;;5.10;;
12812;SDS011;6471;50.932;6.934;2022-09-24T08:43:48;6.30;;;4.50;;
12812;SDS011;6471;50.932;6.934;2022-09-24T08:46:18;4.90;;;4.00;;
12812;SDS011;6471;50.932;6.934;2022-09-24T08:49:05;4.70;;;3.83;;
12812;SDS011;6471;50.932;6.934;2022-09-24T08:51:38;4.80;;;3.97;;
12812;SDS011;6471;50.932;6.934;2022-09-24T08:54:06;5.13;;;4.00;;
12812;SDS011;6471;50.932;6.934;2022-09-24T08:56:34;4.37;;;3.80;;
12812;SDS011;6471;50.932;6.934;2022-09-24T08:59:01;5.70;;;3.70;;
12812;SDS011;6471;50.932;6.934;2022-09-24T09:01:32;4.47;;;3.50;;
12812;SDS011;6471;50.932;6.934;2022-09-24T09:04:03;4.40;;;3.63;;
12812;SDS011;6471;50.932;6.934;2022-09-24T09:11:23;5.10;;;4.00;;
12812;SDS011;6471;50.932;6.934;2022-09-24T09:13:59;5.30;;;3.90;;
12812;SDS011;6471;50.932;6.934;2022-09-24T09:16:28;4.23;;;3.57;;
12812;SDS011;6471;50.932;6.934;2022-09-24T09:19:04;4.80;;;3.43;;
12812;SDS011;6471;50.932;6.934;2022-09-24T09:21:33;5.80;;;3.87;;
12812;SDS011;6471;50.932;6.934;2022-09-24T09:24:02;4.53;;;3.87;;
12812;SDS011;6471;50.932;6.934;2022-09-24T09:26:28;4.60;;;3.70;;
12812;SDS011;6471;50.932;6.934;2022-09-24T09:28:57;4.40;;;3.80;;
12812;SDS011;6471;50.932;6.934;2022-09-24T09:31:29;4.53;;;3.93;;
12812;SDS011;6471;50.932;6.934;2022-09-24T09:34:08;6.33;;;4.80;;
12812;SDS011;6471;50.932;6.934;2022-09-24T09:39:21;10.03;;;7.13;;
12812;SDS011;6471;50.932;6.934;2022-09-24T09:41:51;8.43;;;7.20;;
12812;SDS011;6471;50.932;6.934;2022-09-24T09:44:29;12.07;;;8.23;;
12812;SDS011;6471;50.932;6.934;2022-09-24T09:46:59;9.57;;;7.00;;
12812;SDS011;6471;50.932;6.934;2022-09-24T09:49:30;7.90;;;6.60;;
12812;SDS011;6471;50.932;6.934;2022-09-24T10:10:20;6.97;;;5.27;;
12812;SDS011;6471;50.932;6.934;2022-09-24T10:13:08;6.97;;;5.73;;
12812;SDS011;6471;50.932;6.934;2022-09-24T10:15:38;5.83;;;5.20;;
12812;SDS011;6471;50.932;6.934;2022-09-24T10:18:04;6.47;;;5.00;;
12812;SDS011;6471;50.932;6.934;2022-09-24T10:20:31;5.37;;;4.77;;
12812;SDS011;6471;50.932;6.934;2022-09-24T10:23:02;6.63;;;5.23;;
12812;SDS011;6471;50.932;6.934;2022-09-24T10:25:38;6.13;;;4.80;;
12812;SDS011;6471;50.932;6.934;2022-09-24T10:28:07;6.23;;;4.80;;
12812;SDS011;6471;50.932;6.934;2022-09-24T10:30:57;5.77;;;4.93;;
12812;SDS011;6471;50.932;6.934;2022-09-24T10:33:23;5.63;;;5.07;;
12812;SDS011;6471;50.932;6.934;2022-09-24T10:36:00;5.87;;;4.80;;
12812;SDS011;6471;50.932;6.934;2022-09-24T10:38:27;5.90;;;4.83;;
12812;SDS011;6471;50.932;6.934;2022-09-24T10:40:55;5.07;;;4.10;;
12812;SDS011;6471;50.932;6.934;2022-09-24T10:43:21;4.70;;;4.30;;
12812;SDS011;6471;50.932;6.934;2022-09-24T10:48:30;5.80;;;4.60;;
12812;SDS011;6471;50.932;6.934;2022-09-24T10:51:07;5.33;;;4.67;;
12812;SDS011;6471;50.932;6.934;2022-09-24T10:53:47;5.77;;;4.60;;
12812;SDS011;6471;50.932;6.934;2022-09-24T10:56:31;6.53;;;4.80;;
12812;SDS011;6471;50.932;6.934;2022-09-24T10:59:42;6.33;;;4.93;;
12812;SDS011;6471;50.932;6.934;2022-09-24T11:02:05;5.47;;;4.80;;
12812;SDS011;6471;50.932;6.934;2022-09-24T11:04:54;5.13;;;4.50;;
12812;SDS011;6471;50.932;6.934;2022-09-24T11:20:39;6.77;;;5.67;;
12812;SDS011;6471;50.932;6.934;2022-09-24T11:31:20;8.30;;;5.57;;
12812;SDS011;6471;50.932;6.934;2022-09-24T11:36:38;9.57;;;7.27;;
12812;SDS011;6471;50.932;6.934;2022-09-24T11:41:42;8.50;;;6.23;;
12812;SDS011;6471;50.932;6.934;2022-09-24T11:47:02;7.50;;;5.90;;
12812;SDS011;6471;50.932;6.934;2022-09-24T11:52:09;7.83;;;6.10;;
12812;SDS011;6471;50.932;6.934;2022-09-24T11:57:18;6.90;;;5.43;;
12812;SDS011;6471;50.932;6.934;2022-09-24T12:04:59;11.83;;;7.93;;
12812;SDS011;6471;50.932;6.934;2022-09-24T12:10:21;8.53;;;5.97;;
12812;SDS011;6471;50.932;6.934;2022-09-24T12:12:51;7.93;;;6.30;;
12812;SDS011;6471;50.932;6.934;2022-09-24T12:15:26;8.27;;;6.13;;
12812;SDS011;6471;50.932;6.934;2022-09-24T12:18:01;7.10;;;5.50;;
12812;SDS011;6471;50.932;6.934;2022-09-24T12:20:29;7.73;;;5.67;;
12812;SDS011;6471;50.932;6.934;2022-09-24T12:23:03;7.03;;;5.60;;
12812;SDS011;6471;50.932;6.934;2022-09-24T12:25:33;8.90;;;6.30;;
12812;SDS011;6471;50.932;6.934;2022-09-24T12:28:03;8.57;;;6.40;;
12812;SDS011;6471;50.932;6.934;2022-09-24T12:30:39;7.90;;;5.77;;
12812;SDS011;6471;50.932;6.934;2022-09-24T12:38:31;8.93;;;6.50;;
12812;SDS011;6471;50.932;6.934;2022-09-24T12:43:27;8.00;;;6.23;;
12812;SDS011;6471;50.932;6.934;2022-09-24T12:46:01;9.23;;;6.10;;
12812;SDS011;6471;50.932;6.934;2022-09-24T12:48:28;10.73;;;7.80;;
12812;SDS011;6471;50.932;6.934;2022-09-24T12:50:58;8.83;;;6.37;;
12812;SDS011;6471;50.932;6.934;2022-09-24T12:53:28;7.93;;;6.30;;
12812;SDS011;6471;50.932;6.934;2022-09-24T12:56:00;9.40;;;6.63;;
12812;SDS011;6471;50.932;6.934;2022-09-24T13:04:00;6.33;;;5.10;;
12812;SDS011;6471;50.932;6.934;2022-09-24T13:06:36;6.40;;;5.00;;
12812;SDS011;6471;50.932;6.934;2022-09-24T13:09:03;5.73;;;4.60;;
12812;SDS011;6471;50.932;6.934;2022-09-24T13:11:32;6.10;;;4.47;;
12812;SDS011;6471;50.932;6.934;2022-09-24T13:16:37;9.77;;;6.90;;
12812;SDS011;6471;50.932;6.934;2022-09-24T13:19:05;12.57;;;7.97;;
12812;SDS011;6471;50.932;6.934;2022-09-24T13:21:51;8.60;;;6.53;;
12812;SDS011;6471;50.932;6.934;2022-09-24T13:24:31;9.17;;;6.20;;
12812;SDS011;6471;50.932;6.934;2022-09-24T13:27:08;8.17;;;5.80;;
12812;SDS011;6471;50.932;6.934;2022-09-24T13:29:37;7.67;;;5.57;;
12812;SDS011;6471;50.932;6.934;2022-09-24T13:32:04;6.13;;;4.70;;
12812;SDS011;6471;50.932;6.934;2022-09-24T13:34:30;8.60;;;6.43;;
12812;SDS011;6471;50.932;6.934;2022-09-24T13:37:08;8.53;;;6.00;;
12812;SDS011;6471;50.932;6.934;2022-09-24T13:39:54;7.07;;;5.30;;
12812;SDS011;6471;50.932;6.934;2022-09-24T13:44:54;5.37;;;4.70;;
12812;SDS011;6471;50.932;6.934;2022-09-24T13:49:54;7.30;;;5.07;;
12812;SDS011;6471;50.932;6.934;2022-09-24T13:52:28;28.10;;;16.20;;
12812;SDS011;6471;50.932;6.934;2022-09-24T13:54:56;78.27;;;46.50;;
12812;SDS011;6471;50.932;6.934;2022-09-24T13:57:28;56.37;;;32.50;;
12812;SDS011;6471;50.932;6.934;2022-09-24T14:00:11;34.27;;;21.00;;
12812;SDS011;6471;50.932;6.934;2022-09-24T14:02:40;22.13;;;15.00;;
12812;SDS011;6471;50.932;6.934;2022-09-24T14:05:13;18.83;;;11.47;;
12812;SDS011;6471;50.932;6.934;2022-09-24T14:07:40;12.53;;;8.27;;
12812;SDS011;6471;50.932;6.934;2022-09-24T14:10:10;10.40;;;7.07;;
12812;SDS011;6471;50.932;6.934;2022-09-24T14:12:37;8.77;;;6.23;;
12812;SDS011;6471;50.932;6.934;2022-09-24T14:15:08;8.80;;;5.80;;
12812;SDS011;6471;50.932;6.934;2022-09-24T14:17:34;7.20;;;5.57;;
12812;SDS011;6471;50.932;6.934;2022-09-24T14:20:01;6.63;;;4.80;;
12812;SDS011;6471;50.932;6.934;2022-09-24T14:22:37;5.73;;;4.30;;
12812;SDS011;6471;50.932;6.934;2022-09-24T14:25:08;6.23;;;4.23;;
12812;SDS011;6471;50.932;6.934;2022-09-24T14:27:35;6.10;;;4.73;;
12812;SDS011;6471;50.932;6.934;2022-09-24T14:30:06;4.53;;;3.97;;
12812;SDS011;6471;50.932;6.934;2022-09-24T14:32:36;6.00;;;4.40;;
12812;SDS011;6471;50.932;6.934;2022-09-24T14:35:06;5.93;;;4.33;;
12812;SDS011;6471;50.932;6.934;2022-09-24T14:37:37;6.37;;;4.50;;
12812;SDS011;6471;50.932;6.934;2022-09-24T14:40:11;5.93;;;4.83;;
12812;SDS011;6471;50.932;6.934;2022-09-24T14:42:39;10.37;;;6.97;;
12812;SDS011;6471;50.932;6.934;2022-09-24T14:45:08;18.97;;;13.57;;
12812;SDS011;6471;50.932;6.934;2022-09-24T14:47:35;12.23;;;9.60;;
12812;SDS011;6471;50.932;6.934;2022-09-24T14:50:02;11.27;;;8.03;;
12812;SDS011;6471;50.932;6.934;2022-09-24T14:52:36;8.60;;;6.70;;
12812;SDS011;6471;50.932;6.934;2022-09-24T14:55:12;8.63;;;6.50;;
12812;SDS011;6471;50.932;6.934;2022-09-24T14:57:39;7.73;;;5.73;;
12812;SDS011;6471;50.932;6.934;2022-09-24T15:02:47;5.50;;;4.67;;
12812;SDS011;6471;50.932;6.934;2022-09-24T15:05:15;9.17;;;5.10;;
12812;SDS011;6471;50.932;6.934;2022-09-24T15:07:41;6.07;;;4.47;;
12812;SDS011;6471;50.932;6.934;2022-09-24T15:10:16;9.23;;;6.00;;
12812;SDS011;6471;50.932;6.934;2022-09-24T15:12:45;11.30;;;8.67;;
12812;SDS011;6471;50.932;6.934;2022-09-24T15:17:46;11.50;;;8.67;;
12812;SDS011;6471;50.932;6.934;2022-09-24T15:20:12;9.60;;;7.50;;
12812;SDS011;6471;50.932;6.934;2022-09-24T15:22:38;8.20;;;6.37;;
12812;SDS011;6471;50.932;6.934;2022-09-24T15:25:05;6.83;;;5.47;;
12812;SDS011;6471;50.932;6.934;2022-09-24T15:27:35;7.57;;;5.63;;
12812;SDS011;6471;50.932;6.934;2022-09-24T15:30:02;6.97;;;5.30;;
12812;SDS011;6471;50.932;6.934;2022-09-24T15:32:29;6.50;;;5.23;;
12812;SDS011;6471;50.932;6.934;2022-09-24T15:34:56;5.53;;;4.43;;
12812;SDS011;6471;50.932;6.934;2022-09-24T15:37:23;5.63;;;4.57;;
12812;SDS011;6471;50.932;6.934;2022-09-24T15:39:50;7.27;;;5.13;;
12812;SDS011;6471;50.932;6.934;2022-09-24T15:42:17;6.57;;;4.80;;
12812;SDS011;6471;50.932;6.934;2022-09-24T15:44:44;6.33;;;4.90;;
12812;SDS011;6471;50.932;6.934;2022-09-24T15:47:10;7.37;;;5.90;;
12812;SDS011;6471;50.932;6.934;2022-09-24T15:49:37;6.27;;;5.20;;
12812;SDS011;6471;50.932;6.934;2022-09-24T15:52:16;7.07;;;5.37;;
12812;SDS011;6471;50.932;6.934;2022-09-24T15:54:57;7.20;;;5.47;;
12812;SDS011;6471;50.932;6.934;2022-09-24T15:57:25;5.70;;;4.60;;
12812;SDS011;6471;50.932;6.934;2022-09-24T15:59:51;5.10;;;4.27;;
12812;SDS011;6471;50.932;6.934;2022-09-24T16:02:25;5.83;;;4.50;;
12812;SDS011;6471;50.932;6.934;2022-09-24T16:04:52;5.67;;;4.57;;
12812;SDS011;6471;50.932;6.934;2022-09-24T16:07:19;5.57;;;4.63;;
12812;SDS011;6471;50.932;6.934;2022-09-24T16:09:45;5.80;;;4.60;;
12812;SDS011;6471;50.932;6.934;2022-09-24T16:12:14;6.30;;;4.70;;
12812;SDS011;6471;50.932;6.934;2022-09-24T16:14:40;5.83;;;4.40;;
12812;SDS011;6471;50.932;6.934;2022-09-24T16:17:06;8.43;;;6.83;;
12812;SDS011;6471;50.932;6.934;2022-09-24T16:19:32;7.20;;;5.50;;
12812;SDS011;6471;50.932;6.934;2022-09-24T16:21:59;7.77;;;5.30;;
12812;SDS011;6471;50.932;6.934;2022-09-24T16:24:34;10.30;;;7.57;;
12812;SDS011;6471;50.932;6.934;2022-09-24T18:55:03;8.57;;;6.63;;
12812;SDS011;6471;50.932;6.934;2022-09-24T19:04:07;7.63;;;6.40;;
12812;SDS011;6471;50.932;6.934;2022-09-24T19:06:56;7.73;;;5.90;;
12812;SDS011;6471;50.932;6.934;2022-09-24T19:09:22;7.47;;;5.53;;
12812;SDS011;6471;50.932;6.934;2022-09-24T19:11:49;6.47;;;5.17;;
12812;SDS011;6471;50.932;6.934;2022-09-24T19:14:15;7.43;;;5.60;;
12812;SDS011;6471;50.932;6.934;2022-09-24T19:16:44;7.97;;;6.00;;
12812;SDS011;6471;50.932;6.934;2022-09-24T19:19:11;8.53;;;6.37;;
12812;SDS011;6471;50.932;6.934;2022-09-24T19:21:37;7.53;;;6.33;;
12812;SDS011;6471;50.932;6.934;2022-09-24T19:24:05;8.97;;;6.60;;
12812;SDS011;6471;50.932;6.934;2022-09-24T19:26:32;11.63;;;8.30;;
12812;SDS011;6471;50.932;6.934;2022-09-24T19:28:58;11.13;;;8.40;;
12812;SDS011;6471;50.932;6.934;2022-09-24T19:31:25;12.77;;;9.77;;
12812;SDS011;6471;50.932;6.934;2022-09-24T19:33:53;13.83;;;9.87;;
12812;SDS011;6471;50.932;6.934;2022-09-24T19:36:19;13.50;;;9.40;;
12812;SDS011;6471;50.932;6.934;2022-09-24T19:38:46;13.83;;;9.50;;